Time,TemperatureF,DewpointF,PressureIn,WindDirection,WindDirectionDegrees,WindSpeedMPH,WindSpeedGustMPH,Humidity,HourlyPrecipIn,Conditions,Clouds,dailyrainin,SoftwareType,DateUTC
2013-02-02 00:00:00,12.4,6.6,30.42,SW,216,0.0,0.0,77,0.00,,,0.00,Wunderground v.1.15,2013-02-02 05:00:00,
2013-02-02 00:05:00,12.4,6.6,30.42,SW,216,0.0,0.0,77,0.00,,,0.00,Wunderground v.1.15,2013-02-02 05:05:00,
2013-02-02 00:10:00,12.4,6.8,30.42,SW,216,0.0,0.0,78,0.00,,,0.00,Wunderground v.1.15,2013-02-02 05:10:00,
2013-02-02 00:15:00,12.3,6.7,30.42,SW,216,0.0,0.0,78,0.00,,,0.00,Wunderground v.1.15,2013-02-02 05:15:00,
2013-02-02 00:20:00,12.3,6.7,30.42,SW,216,0.0,0.0,78,0.00,,,0.00,Wunderground v.1.15,2013-02-02 05:20:00,
2013-02-02 00:25:00,12.1,6.8,30.42,SW,216,0.0,0.0,79,0.00,,,0.00,Wunderground v.1.15,2013-02-02 05:25:00,
2013-02-02 00:30:00,11.9,6.6,30.42,SW,216,0.0,0.0,79,0.00,,,0.00,Wunderground v.1.15,2013-02-02 05:30:00,
2013-02-02 00:35:00,11.9,6.9,30.42,SW,216,0.0,0.0,80,0.00,,,0.00,Wunderground v.1.15,2013-02-02 05:35:00,
2013-02-02 00:40:00,12.1,7.1,30.43,SW,216,0.0,0.0,80,0.00,,,0.00,Wunderground v.1.15,2013-02-02 05:40:00,
2013-02-02 00:45:00,12.3,7.0,30.42,SW,216,0.0,0.0,79,0.00,,,0.00,Wunderground v.1.15,2013-02-02 05:45:00,
2013-02-02 00:50:00,12.4,7.1,30.42,SW,216,0.0,0.0,79,0.00,,,0.00,Wunderground v.1.15,2013-02-02 05:50:00,
2013-02-02 00:55:00,12.4,7.1,30.42,SW,216,0.0,0.0,79,0.00,,,0.00,Wunderground v.1.15,2013-02-02 05:55:00,
2013-02-02 01:00:00,12.4,7.1,30.42,SW,216,0.0,0.0,79,0.00,,,0.00,Wunderground v.1.15,2013-02-02 06:00:00,
2013-02-02 01:10:00,12.4,7.1,30.42,SW,216,0.0,0.0,79,0.00,,,0.00,Wunderground v.1.15,2013-02-02 06:10:00,
2013-02-02 01:20:00,12.4,7.1,30.41,SW,216,0.0,0.0,79,0.00,,,0.00,Wunderground v.1.15,2013-02-02 06:20:00,
2013-02-02 01:30:00,12.9,7.6,30.41,SW,216,0.0,0.0,79,0.00,,,0.00,Wunderground v.1.15,2013-02-02 06:30:00,
2013-02-02 01:40:00,13.1,7.5,30.41,SW,216,0.0,0.0,78,0.00,,,0.00,Wunderground v.1.15,2013-02-02 06:40:00,
2013-02-02 01:50:00,12.8,7.5,30.40,SW,216,0.0,0.0,79,0.00,,,0.00,Wunderground v.1.15,2013-02-02 06:50:00,
2013-02-02 02:00:00,12.8,7.8,30.39,SW,216,0.0,0.0,80,0.00,,,0.00,Wunderground v.1.15,2013-02-02 07:00:00,
2013-02-02 02:05:00,12.6,7.6,30.40,SW,216,0.0,0.0,80,0.00,,,0.00,Wunderground v.1.15,2013-02-02 07:05:00,
2013-02-02 02:10:00,12.6,7.3,30.40,SW,216,0.0,0.0,79,0.00,,,0.00,Wunderground v.1.15,2013-02-02 07:10:00,
2013-02-02 02:15:00,12.4,7.4,30.40,SW,216,0.0,0.0,80,0.00,,,0.00,Wunderground v.1.15,2013-02-02 07:15:00,
2013-02-02 02:20:00,12.4,7.4,30.40,SW,216,0.0,0.0,80,0.00,,,0.00,Wunderground v.1.15,2013-02-02 07:20:00,
2013-02-02 02:30:00,12.8,8.1,30.40,SW,216,0.0,0.0,81,0.00,,,0.00,Wunderground v.1.15,2013-02-02 07:30:00,
2013-02-02 02:40:00,12.9,7.6,30.40,SW,216,0.0,0.0,79,0.00,,,0.00,Wunderground v.1.15,2013-02-02 07:40:00,
2013-02-02 02:50:00,12.6,7.3,30.40,SW,216,0.0,0.0,79,0.00,,,0.00,Wunderground v.1.15,2013-02-02 07:50:00,
2013-02-02 02:55:00,12.4,7.4,30.40,SW,216,0.0,0.0,80,0.00,,,0.00,Wunderground v.1.15,2013-02-02 07:55:00,
2013-02-02 03:00:00,12.4,7.4,30.41,SW,216,0.0,0.0,80,0.00,,,0.00,Wunderground v.1.15,2013-02-02 08:00:00,
2013-02-02 03:05:00,12.3,7.6,30.41,SW,216,0.0,0.0,81,0.00,,,0.00,Wunderground v.1.15,2013-02-02 08:05:00,
2013-02-02 03:10:00,12.1,7.4,30.41,SW,216,0.0,0.0,81,0.00,,,0.00,Wunderground v.1.15,2013-02-02 08:10:00,
2013-02-02 03:15:00,12.1,7.4,30.41,SW,216,0.0,0.0,81,0.00,,,0.00,Wunderground v.1.15,2013-02-02 08:15:00,
2013-02-02 03:25:00,11.7,7.0,30.41,SW,216,0.0,0.0,81,0.00,,,0.00,Wunderground v.1.15,2013-02-02 08:25:00,
2013-02-02 03:30:00,11.6,6.9,30.41,SW,216,0.0,0.0,81,0.00,,,0.00,Wunderground v.1.15,2013-02-02 08:30:00,
2013-02-02 03:40:00,11.2,6.8,30.41,SW,216,0.0,0.0,82,0.00,,,0.00,Wunderground v.1.15,2013-02-02 08:40:00,
2013-02-02 03:50:00,11.2,7.0,30.41,SW,216,0.0,0.0,83,0.00,,,0.00,Wunderground v.1.15,2013-02-02 08:50:00,
2013-02-02 03:55:00,11.2,7.0,30.41,SW,216,0.0,0.0,83,0.00,,,0.00,Wunderground v.1.15,2013-02-02 08:55:00,
2013-02-02 04:00:00,11.2,7.0,30.41,SW,216,0.0,0.0,83,0.00,,,0.00,Wunderground v.1.15,2013-02-02 09:00:00,
2013-02-02 04:05:00,11.2,7.0,30.41,SW,216,0.0,0.0,83,0.00,,,0.00,Wunderground v.1.15,2013-02-02 09:05:00,
2013-02-02 04:10:00,11.4,7.2,30.41,SW,216,0.0,0.0,83,0.00,,,0.00,Wunderground v.1.15,2013-02-02 09:10:00,
2013-02-02 04:20:00,11.4,7.2,30.41,SW,216,0.0,0.0,83,0.00,,,0.00,Wunderground v.1.15,2013-02-02 09:20:00,
2013-02-02 04:25:00,11.4,7.2,30.40,SW,216,0.0,0.0,83,0.00,,,0.00,Wunderground v.1.15,2013-02-02 09:25:00,
2013-02-02 04:30:00,11.4,7.0,30.41,SW,216,0.0,0.0,82,0.00,,,0.00,Wunderground v.1.15,2013-02-02 09:30:00,
2013-02-02 04:40:00,11.4,7.0,30.40,SW,216,0.0,0.0,82,0.00,,,0.00,Wunderground v.1.15,2013-02-02 09:40:00,
2013-02-02 04:45:00,11.2,6.8,30.40,SW,216,0.0,0.0,82,0.00,,,0.00,Wunderground v.1.15,2013-02-02 09:45:00,
2013-02-02 04:50:00,11.2,7.0,30.40,SW,216,0.0,0.0,83,0.00,,,0.00,Wunderground v.1.15,2013-02-02 09:50:00,
2013-02-02 04:55:00,11.2,7.0,30.40,SW,216,0.0,0.0,83,0.00,,,0.00,Wunderground v.1.15,2013-02-02 09:55:00,
2013-02-02 05:00:00,11.2,7.0,30.40,SW,216,0.0,0.0,83,0.00,,,0.00,Wunderground v.1.15,2013-02-02 10:00:00,
2013-02-02 05:05:00,11.2,7.0,30.40,SW,216,0.0,0.0,83,0.00,,,0.00,Wunderground v.1.15,2013-02-02 10:05:00,
2013-02-02 05:10:00,11.4,7.5,30.39,SW,216,0.0,0.0,84,0.00,,,0.00,Wunderground v.1.15,2013-02-02 10:10:00,
2013-02-02 05:20:00,11.6,7.7,30.39,SW,216,0.0,0.0,84,0.00,,,0.00,Wunderground v.1.15,2013-02-02 10:20:00,
2013-02-02 05:30:00,11.9,8.3,30.39,SW,216,0.0,0.0,85,0.00,,,0.00,Wunderground v.1.15,2013-02-02 10:30:00,
2013-02-02 05:35:00,11.9,8.3,30.39,SW,216,0.0,0.0,85,0.00,,,0.00,Wunderground v.1.15,2013-02-02 10:35:00,
2013-02-02 05:45:00,11.9,8.0,30.40,SW,216,0.0,0.0,84,0.00,,,0.00,Wunderground v.1.15,2013-02-02 10:45:00,
2013-02-02 05:55:00,11.9,8.3,30.39,SW,216,0.0,0.0,85,0.00,,,0.00,Wunderground v.1.15,2013-02-02 10:55:00,
2013-02-02 06:00:00,11.9,8.3,30.39,SW,216,0.0,0.0,85,0.00,,,0.00,Wunderground v.1.15,2013-02-02 11:00:00,
2013-02-02 06:05:00,11.9,8.0,30.39,SW,216,0.0,0.0,84,0.00,,,0.00,Wunderground v.1.15,2013-02-02 11:05:00,
2013-02-02 06:15:00,11.7,7.8,30.40,SW,216,0.0,0.0,84,0.00,,,0.00,Wunderground v.1.15,2013-02-02 11:15:00,
2013-02-02 06:20:00,11.7,7.8,30.40,SW,216,0.0,0.0,84,0.00,,,0.00,Wunderground v.1.15,2013-02-02 11:20:00,
2013-02-02 06:25:00,11.7,7.8,30.40,SW,216,0.0,0.0,84,0.00,,,0.00,Wunderground v.1.15,2013-02-02 11:25:00,
2013-02-02 06:30:00,11.7,7.5,30.40,SW,216,0.0,0.0,83,0.00,,,0.00,Wunderground v.1.15,2013-02-02 11:30:00,
2013-02-02 06:40:00,11.7,7.8,30.40,SW,216,0.0,0.0,84,0.00,,,0.00,Wunderground v.1.15,2013-02-02 11:40:00,
2013-02-02 06:45:00,11.7,7.8,30.40,SW,216,0.0,0.0,84,0.00,,,0.00,Wunderground v.1.15,2013-02-02 11:45:00,
2013-02-02 06:50:00,11.6,8.0,30.41,SW,216,0.0,0.0,85,0.00,,,0.00,Wunderground v.1.15,2013-02-02 11:50:00,
2013-02-02 06:55:00,11.6,8.0,30.40,SW,216,0.0,0.0,85,0.00,,,0.00,Wunderground v.1.15,2013-02-02 11:55:00,
2013-02-02 07:00:00,11.6,8.0,30.40,SW,216,0.0,0.0,85,0.00,,,0.00,Wunderground v.1.15,2013-02-02 12:00:00,
2013-02-02 07:05:00,11.4,7.8,30.41,SW,216,0.0,0.0,85,0.00,,,0.00,Wunderground v.1.15,2013-02-02 12:05:00,
2013-02-02 07:15:00,11.4,7.8,30.40,SW,216,0.0,0.0,85,0.00,,,0.00,Wunderground v.1.15,2013-02-02 12:15:00,
2013-02-02 07:20:00,11.6,8.0,30.40,SW,216,0.0,0.0,85,0.00,,,0.00,Wunderground v.1.15,2013-02-02 12:20:00,
2013-02-02 07:30:00,11.9,8.5,30.40,SW,216,0.0,0.0,86,0.00,,,0.00,Wunderground v.1.15,2013-02-02 12:30:00,
2013-02-02 07:40:00,12.6,9.2,30.40,SW,216,0.0,0.0,86,0.00,,,0.00,Wunderground v.1.15,2013-02-02 12:40:00,
2013-02-02 07:45:00,12.8,9.4,30.40,SW,216,0.0,0.0,86,0.00,,,0.00,Wunderground v.1.15,2013-02-02 12:45:00,
2013-02-02 07:50:00,13.3,9.9,30.40,SW,216,0.0,0.0,86,0.00,,,0.00,Wunderground v.1.15,2013-02-02 12:50:00,
2013-02-02 07:55:00,13.6,10.2,30.39,SW,216,0.0,0.0,86,0.00,,,0.00,Wunderground v.1.15,2013-02-02 12:55:00,
2013-02-02 08:05:00,14.6,10.9,30.39,SW,216,0.0,0.0,85,0.00,,,0.00,Wunderground v.1.15,2013-02-02 13:05:00,
2013-02-02 08:10:00,15.2,11.5,30.40,SW,216,0.0,0.0,85,0.00,,,0.00,Wunderground v.1.15,2013-02-02 13:10:00,
2013-02-02 08:15:00,15.7,11.7,30.39,SW,216,0.0,0.0,84,0.00,,,0.00,Wunderground v.1.15,2013-02-02 13:15:00,
2013-02-02 08:20:00,16.2,12.2,30.39,SW,216,0.0,0.0,84,0.00,,,0.00,Wunderground v.1.15,2013-02-02 13:20:00,
2013-02-02 08:25:00,16.7,12.7,30.39,SW,216,0.0,0.0,84,0.00,,,0.00,Wunderground v.1.15,2013-02-02 13:25:00,
2013-02-02 08:35:00,17.8,13.5,30.39,SW,216,0.0,0.0,83,0.00,,,0.00,Wunderground v.1.15,2013-02-02 13:35:00,
2013-02-02 08:40:00,18.3,13.4,30.39,SW,216,0.0,0.0,81,0.00,,,0.00,Wunderground v.1.15,2013-02-02 13:40:00,
2013-02-02 08:45:00,18.8,13.4,30.39,SW,216,0.0,0.0,79,0.00,,,0.00,Wunderground v.1.15,2013-02-02 13:45:00,
2013-02-02 08:50:00,19.2,13.5,30.39,SW,216,0.0,0.0,78,0.00,,,0.00,Wunderground v.1.15,2013-02-02 13:50:00,
2013-02-02 09:00:00,20.0,13.6,30.38,SW,216,0.0,0.0,76,0.00,,,0.00,Wunderground v.1.15,2013-02-02 14:00:00,
2013-02-02 09:10:00,20.5,13.2,30.38,SW,216,0.0,0.0,73,0.00,,,0.00,Wunderground v.1.15,2013-02-02 14:10:00,
2013-02-02 09:15:00,20.8,13.5,30.38,SW,216,0.0,0.0,73,0.00,,,0.00,Wunderground v.1.15,2013-02-02 14:15:00,
2013-02-02 09:25:00,21.1,13.2,30.38,SW,216,0.0,0.0,71,0.00,,,0.00,Wunderground v.1.15,2013-02-02 14:25:00,
2013-02-02 09:30:00,21.3,13.4,30.38,SW,216,0.0,0.0,71,0.00,,,0.00,Wunderground v.1.15,2013-02-02 14:30:00,
2013-02-02 09:40:00,21.8,12.9,30.37,SW,216,0.0,0.0,68,0.00,,,0.00,Wunderground v.1.15,2013-02-02 14:40:00,
2013-02-02 09:45:00,21.8,13.2,30.37,SW,216,0.0,0.0,69,0.00,,,0.00,Wunderground v.1.15,2013-02-02 14:45:00,
2013-02-02 09:50:00,21.9,13.6,30.36,SW,216,0.0,0.0,70,0.00,,,0.00,Wunderground v.1.15,2013-02-02 14:50:00,
2013-02-02 09:55:00,22.2,13.9,30.36,SW,216,0.0,0.0,70,0.00,,,0.00,Wunderground v.1.15,2013-02-02 14:55:00,
2013-02-02 10:05:00,23.0,14.3,30.35,SW,216,0.0,0.0,69,0.00,,,0.00,Wunderground v.1.15,2013-02-02 15:05:00,
2013-02-02 10:10:00,23.5,14.1,30.35,SW,216,0.0,0.0,67,0.00,,,0.00,Wunderground v.1.15,2013-02-02 15:10:00,
2013-02-02 10:20:00,24.8,14.0,30.34,SW,216,0.0,0.0,63,0.00,,,0.00,Wunderground v.1.15,2013-02-02 15:20:00,
2013-02-02 10:30:00,25.7,13.3,30.33,SW,218,0.0,0.0,59,0.00,,,0.00,Wunderground v.1.15,2013-02-02 15:30:00,
2013-02-02 10:35:00,26.1,13.3,30.33,SW,218,0.0,0.0,58,0.00,,,0.00,Wunderground v.1.15,2013-02-02 15:35:00,
2013-02-02 10:40:00,26.3,13.5,30.33,SW,218,0.0,0.0,58,0.00,,,0.00,Wunderground v.1.15,2013-02-02 15:40:00,
2013-02-02 10:50:00,27.2,13.1,30.33,WSW,257,1.0,5.0,55,0.00,,,0.00,Wunderground v.1.15,2013-02-02 15:50:00,
2013-02-02 10:55:00,27.6,13.5,30.33,WSW,251,3.0,5.0,55,0.00,,,0.00,Wunderground v.1.15,2013-02-02 15:55:00,
2013-02-02 11:05:00,27.6,11.4,30.33,SW,221,4.0,6.0,50,0.00,,,0.00,Wunderground v.1.15,2013-02-02 16:05:00,
2013-02-02 11:10:00,27.6,11.8,30.33,WSW,237,5.0,5.0,51,0.00,,,0.00,Wunderground v.1.15,2013-02-02 16:10:00,
2013-02-02 11:15:00,27.5,9.9,30.33,WSW,237,4.0,5.0,47,0.00,,,0.00,Wunderground v.1.15,2013-02-02 16:15:00,
2013-02-02 11:20:00,27.5,12.2,30.33,SW,217,4.0,5.0,52,0.00,,,0.00,Wunderground v.1.15,2013-02-02 16:20:00,
2013-02-02 11:30:00,27.6,13.9,30.33,SW,216,6.0,6.0,56,0.00,,,0.00,Wunderground v.1.15,2013-02-02 16:30:00,
2013-02-02 11:35:00,27.6,15.5,30.34,SW,214,6.0,6.0,60,0.00,,,0.00,Wunderground v.1.15,2013-02-02 16:35:00,
2013-02-02 11:40:00,27.6,14.3,30.34,WSW,240,6.0,10.0,57,0.00,,,0.00,Wunderground v.1.15,2013-02-02 16:40:00,
2013-02-02 11:45:00,27.3,12.4,30.34,SSW,199,7.0,18.0,53,0.00,,,0.00,Wunderground v.1.15,2013-02-02 16:45:00,
2013-02-02 11:55:00,26.3,15.0,30.34,South,189,11.0,12.0,62,0.00,,,0.00,Wunderground v.1.15,2013-02-02 16:55:00,
2013-02-02 12:00:00,26.1,14.5,30.34,SSW,211,11.0,19.0,61,0.00,,,0.00,Wunderground v.1.15,2013-02-02 17:00:00,
2013-02-02 12:10:00,26.1,15.2,30.32,SW,221,10.0,10.0,63,0.00,,,0.00,Wunderground v.1.15,2013-02-02 17:10:00,
2013-02-02 12:20:00,26.9,16.0,30.31,SW,216,6.0,6.0,63,0.00,,,0.00,Wunderground v.1.15,2013-02-02 17:20:00,
2013-02-02 12:25:00,27.5,16.2,30.31,SW,221,6.0,6.0,62,0.00,,,0.00,Wunderground v.1.15,2013-02-02 17:25:00,
2013-02-02 12:30:00,27.9,15.8,30.30,WSW,239,5.0,7.0,60,0.00,,,0.00,Wunderground v.1.15,2013-02-02 17:30:00,
2013-02-02 12:35:00,28.5,14.8,30.29,South,180,6.0,7.0,56,0.00,,,0.00,Wunderground v.1.15,2013-02-02 17:35:00,
2013-02-02 12:40:00,28.8,15.1,30.29,SSW,204,6.0,6.0,56,0.00,,,0.00,Wunderground v.1.15,2013-02-02 17:40:00,
2013-02-02 12:45:00,28.7,15.8,30.28,SSW,193,7.0,10.0,58,0.00,,,0.00,Wunderground v.1.15,2013-02-02 17:45:00,
2013-02-02 12:55:00,27.8,16.8,30.27,SSW,209,8.0,9.0,63,0.00,,,0.00,Wunderground v.1.15,2013-02-02 17:55:00,
2013-02-02 13:00:00,27.0,18.2,30.27,SSW,202,8.0,9.0,69,0.00,,,0.00,Wunderground v.1.15,2013-02-02 18:00:00,
2013-02-02 13:10:00,26.1,20.2,30.26,West,279,7.0,7.0,78,0.00,,,0.00,Wunderground v.1.15,2013-02-02 18:10:00,
2013-02-02 13:20:00,25.4,20.7,30.25,SSW,197,8.0,8.0,82,0.00,,,0.00,Wunderground v.1.15,2013-02-02 18:20:00,
2013-02-02 13:25:00,25.7,21.5,30.25,SSW,208,8.0,8.0,84,0.00,,,0.00,Wunderground v.1.15,2013-02-02 18:25:00,
2013-02-02 13:35:00,25.4,22.1,30.24,SW,225,6.0,7.0,87,0.00,,,0.00,Wunderground v.1.15,2013-02-02 18:35:00,
2013-02-02 13:40:00,25.3,22.2,30.24,SW,230,7.0,10.0,88,0.00,,,0.00,Wunderground v.1.15,2013-02-02 18:40:00,
2013-02-02 13:50:00,25.1,22.3,30.23,SW,229,5.0,5.0,89,0.00,,,0.00,Wunderground v.1.15,2013-02-02 18:50:00,
2013-02-02 13:55:00,25.1,22.3,30.23,SW,225,4.0,5.0,89,0.00,,,0.00,Wunderground v.1.15,2013-02-02 18:55:00,
2013-02-02 14:00:00,25.1,22.3,30.22,SSW,207,5.0,5.0,89,0.00,,,0.00,Wunderground v.1.15,2013-02-02 19:00:00,
2013-02-02 14:10:00,25.1,22.6,30.22,SSW,205,6.0,6.0,90,0.00,,,0.00,Wunderground v.1.15,2013-02-02 19:10:00,
2013-02-02 14:15:00,25.1,22.6,30.22,SSW,210,6.0,6.0,90,0.00,,,0.00,Wunderground v.1.15,2013-02-02 19:15:00,
2013-02-02 14:25:00,25.3,22.8,30.21,SSW,209,6.0,9.0,90,0.00,,,0.00,Wunderground v.1.15,2013-02-02 19:25:00,
2013-02-02 14:30:00,25.1,22.8,30.21,SSW,203,7.0,7.0,91,0.00,,,0.00,Wunderground v.1.15,2013-02-02 19:30:00,
2013-02-02 14:35:00,25.3,23.0,30.21,SSW,193,5.0,7.0,91,0.00,,,0.00,Wunderground v.1.15,2013-02-02 19:35:00,
2013-02-02 14:40:00,25.3,23.3,30.21,SW,219,4.0,4.0,92,0.00,,,0.00,Wunderground v.1.15,2013-02-02 19:40:00,
2013-02-02 14:50:00,25.3,23.3,30.20,WSW,241,5.0,7.0,92,0.00,,,0.00,Wunderground v.1.15,2013-02-02 19:50:00,
2013-02-02 14:55:00,25.3,23.3,30.20,SW,214,4.0,7.0,92,0.00,,,0.00,Wunderground v.1.15,2013-02-02 19:55:00,
2013-02-02 15:05:00,25.3,23.3,30.20,SSW,207,5.0,8.0,92,0.00,,,0.00,Wunderground v.1.15,2013-02-02 20:05:00,
2013-02-02 15:15:00,25.6,23.9,30.19,SW,216,4.0,5.0,93,0.00,,,0.00,Wunderground v.1.15,2013-02-02 20:15:00,
2013-02-02 15:20:00,25.6,23.6,30.19,SW,234,3.0,3.0,92,0.00,,,0.00,Wunderground v.1.15,2013-02-02 20:20:00,
2013-02-02 15:30:00,25.8,23.8,30.19,SW,214,4.0,5.0,92,0.00,,,0.00,Wunderground v.1.15,2013-02-02 20:30:00,
2013-02-02 15:40:00,25.7,23.7,30.18,SSW,200,4.0,4.0,92,0.00,,,0.00,Wunderground v.1.15,2013-02-02 20:40:00,
2013-02-02 15:45:00,25.7,23.7,30.18,SW,221,4.0,4.0,92,0.00,,,0.00,Wunderground v.1.15,2013-02-02 20:45:00,
2013-02-02 15:50:00,25.7,23.7,30.18,SW,218,3.0,4.0,92,0.00,,,0.00,Wunderground v.1.15,2013-02-02 20:50:00,
2013-02-02 16:00:00,25.7,24.0,30.18,SW,215,2.0,2.0,93,0.00,,,0.00,Wunderground v.1.15,2013-02-02 21:00:00,
2013-02-02 16:10:00,25.7,24.0,30.17,SW,215,2.0,2.0,93,0.00,,,0.00,Wunderground v.1.15,2013-02-02 21:10:00,
2013-02-02 16:20:00,25.7,24.2,30.17,SW,215,1.0,1.0,94,0.00,,,0.00,Wunderground v.1.15,2013-02-02 21:20:00,
2013-02-02 16:25:00,25.8,24.3,30.17,SW,215,0.0,2.0,94,0.00,,,0.00,Wunderground v.1.15,2013-02-02 21:25:00,
2013-02-02 16:30:00,25.7,24.2,30.17,SW,215,0.0,0.0,94,0.00,,,0.00,Wunderground v.1.15,2013-02-02 21:30:00,
2013-02-02 16:40:00,25.7,24.2,30.17,SW,215,1.0,1.0,94,0.00,,,0.00,Wunderground v.1.15,2013-02-02 21:40:00,
2013-02-02 16:50:00,25.7,24.5,30.17,SW,215,1.0,1.0,95,0.00,,,0.00,Wunderground v.1.15,2013-02-02 21:50:00,
2013-02-02 16:55:00,25.7,24.5,30.17,SW,215,1.0,1.0,95,0.00,,,0.00,Wunderground v.1.15,2013-02-02 21:55:00,
2013-02-02 17:00:00,25.7,24.5,30.17,SW,215,1.0,1.0,95,0.00,,,0.00,Wunderground v.1.15,2013-02-02 22:00:00,
2013-02-02 17:10:00,25.6,24.4,30.17,SW,215,2.0,2.0,95,0.00,,,0.00,Wunderground v.1.15,2013-02-02 22:10:00,
2013-02-02 17:20:00,25.6,24.4,30.17,SW,215,0.0,0.0,95,0.00,,,0.00,Wunderground v.1.15,2013-02-02 22:20:00,
2013-02-02 17:25:00,25.6,24.4,30.16,SW,215,0.0,0.0,95,0.00,,,0.00,Wunderground v.1.15,2013-02-02 22:25:00,
2013-02-02 17:30:00,25.6,24.4,30.16,SW,215,0.0,0.0,95,0.00,,,0.00,Wunderground v.1.15,2013-02-02 22:30:00,
2013-02-02 17:35:00,25.6,24.4,30.16,SW,215,0.0,0.0,95,0.00,,,0.00,Wunderground v.1.15,2013-02-02 22:35:00,
2013-02-02 17:40:00,25.6,24.4,30.16,SW,215,0.0,0.0,95,0.00,,,0.00,Wunderground v.1.15,2013-02-02 22:40:00,
2013-02-02 17:50:00,25.6,24.4,30.16,SW,215,0.0,0.0,95,0.00,,,0.00,Wunderground v.1.15,2013-02-02 22:50:00,
2013-02-02 18:00:00,25.6,24.4,30.16,SW,215,0.0,0.0,95,0.00,,,0.00,Wunderground v.1.15,2013-02-02 23:00:00,
2013-02-02 18:10:00,25.6,24.4,30.15,SW,215,0.0,0.0,95,0.00,,,0.00,Wunderground v.1.15,2013-02-02 23:10:00,
2013-02-02 18:20:00,25.6,24.4,30.15,SW,215,0.0,0.0,95,0.00,,,0.00,Wunderground v.1.15,2013-02-02 23:20:00,
2013-02-02 18:30:00,25.6,24.4,30.15,SW,215,0.0,0.0,95,0.00,,,0.00,Wunderground v.1.15,2013-02-02 23:30:00,
2013-02-02 18:40:00,25.6,24.4,30.16,SW,215,0.0,0.0,95,0.00,,,0.00,Wunderground v.1.15,2013-02-02 23:40:00,
2013-02-02 18:50:00,25.6,24.4,30.16,SW,215,0.0,0.0,95,0.00,,,0.00,Wunderground v.1.15,2013-02-02 23:50:00,
2013-02-02 18:55:00,25.6,24.4,30.16,SW,215,0.0,0.0,95,0.00,,,0.00,Wunderground v.1.15,2013-02-02 23:55:00,
2013-02-02 19:00:00,25.6,24.4,30.16,SW,215,0.0,0.0,95,0.00,,,0.00,Wunderground v.1.15,2013-02-03 00:00:00,
2013-02-02 19:10:00,25.6,24.4,30.16,SW,215,0.0,0.0,95,0.00,,,0.00,Wunderground v.1.15,2013-02-03 00:10:00,
2013-02-02 19:15:00,25.6,24.4,30.16,SW,215,0.0,0.0,95,0.00,,,0.00,Wunderground v.1.15,2013-02-03 00:15:00,
2013-02-02 19:20:00,25.6,24.4,30.16,SW,215,0.0,0.0,95,0.00,,,0.00,Wunderground v.1.15,2013-02-03 00:20:00,
2013-02-02 19:25:00,25.6,24.4,30.16,SW,215,0.0,0.0,95,0.00,,,0.00,Wunderground v.1.15,2013-02-03 00:25:00,
2013-02-02 19:30:00,25.4,24.2,30.15,SW,215,0.0,0.0,95,0.00,,,0.00,Wunderground v.1.15,2013-02-03 00:30:00,
2013-02-02 19:40:00,25.4,24.2,30.16,SW,215,0.0,0.0,95,0.00,,,0.00,Wunderground v.1.15,2013-02-03 00:40:00,
2013-02-02 19:45:00,25.4,24.2,30.16,SW,215,0.0,0.0,95,0.00,,,0.00,Wunderground v.1.15,2013-02-03 00:45:00,
2013-02-02 19:50:00,25.4,24.4,30.16,SW,215,0.0,0.0,96,0.00,,,0.00,Wunderground v.1.15,2013-02-03 00:50:00,
2013-02-02 20:00:00,25.4,24.4,30.16,SW,215,0.0,0.0,96,0.00,,,0.00,Wunderground v.1.15,2013-02-03 01:00:00,
2013-02-02 20:05:00,25.4,24.4,30.16,SW,215,0.0,0.0,96,0.00,,,0.00,Wunderground v.1.15,2013-02-03 01:05:00,
2013-02-02 20:10:00,25.4,24.4,30.16,SW,215,0.0,0.0,96,0.00,,,0.00,Wunderground v.1.15,2013-02-03 01:10:00,
2013-02-02 20:15:00,25.4,24.4,30.16,SW,215,0.0,0.0,96,0.00,,,0.00,Wunderground v.1.15,2013-02-03 01:15:00,
2013-02-02 20:20:00,25.4,24.4,30.16,SW,215,0.0,0.0,96,0.00,,,0.00,Wunderground v.1.15,2013-02-03 01:20:00,
2013-02-02 20:30:00,25.4,24.4,30.16,SW,215,0.0,0.0,96,0.00,,,0.00,Wunderground v.1.15,2013-02-03 01:30:00,
2013-02-02 20:40:00,25.6,24.6,30.16,SW,215,0.0,0.0,96,0.00,,,0.00,Wunderground v.1.15,2013-02-03 01:40:00,
2013-02-02 20:45:00,25.6,24.6,30.16,SW,215,0.0,0.0,96,0.00,,,0.00,Wunderground v.1.15,2013-02-03 01:45:00,
2013-02-02 20:50:00,25.6,24.6,30.16,SW,215,0.0,0.0,96,0.00,,,0.00,Wunderground v.1.15,2013-02-03 01:50:00,
2013-02-02 21:00:00,25.6,24.6,30.16,SW,215,0.0,0.0,96,0.00,,,0.00,Wunderground v.1.15,2013-02-03 02:00:00,
2013-02-02 21:10:00,25.6,24.6,30.17,SW,215,0.0,0.0,96,0.00,,,0.00,Wunderground v.1.15,2013-02-03 02:10:00,
2013-02-02 21:20:00,25.7,24.7,30.17,SW,215,0.0,0.0,96,0.00,,,0.00,Wunderground v.1.15,2013-02-03 02:20:00,
2013-02-02 21:25:00,25.7,24.7,30.17,SW,215,0.0,0.0,96,0.00,,,0.00,Wunderground v.1.15,2013-02-03 02:25:00,
2013-02-02 21:35:00,26.0,25.0,30.16,SW,215,0.0,0.0,96,0.00,,,0.00,Wunderground v.1.15,2013-02-03 02:35:00,
2013-02-02 21:40:00,26.0,25.0,30.16,SW,215,0.0,0.0,96,0.00,,,0.00,Wunderground v.1.15,2013-02-03 02:40:00,
2013-02-02 21:46:00,26.1,25.1,30.16,SW,215,0.0,0.0,96,0.00,,,0.00,Wunderground v.1.15,2013-02-03 02:46:00,
2013-02-02 21:55:00,26.1,25.1,30.15,SW,215,0.0,0.0,96,0.00,,,0.00,Wunderground v.1.15,2013-02-03 02:55:00,
2013-02-02 22:00:00,26.1,25.1,30.16,SW,215,0.0,0.0,96,0.00,,,0.00,Wunderground v.1.15,2013-02-03 03:00:00,
2013-02-02 22:10:00,26.3,25.3,30.15,SW,215,0.0,0.0,96,0.00,,,0.00,Wunderground v.1.15,2013-02-03 03:10:00,
2013-02-02 22:20:00,26.3,25.3,30.14,SW,215,0.0,0.0,96,0.00,,,0.00,Wunderground v.1.15,2013-02-03 03:20:00,
2013-02-02 22:30:00,26.3,25.3,30.15,SW,215,1.0,1.0,96,0.00,,,0.00,Wunderground v.1.15,2013-02-03 03:30:00,
2013-02-02 22:35:00,26.3,25.3,30.15,SW,215,1.0,3.0,96,0.00,,,0.00,Wunderground v.1.15,2013-02-03 03:35:00,
2013-02-02 22:40:00,26.3,25.3,30.15,SW,215,2.0,2.0,96,0.00,,,0.00,Wunderground v.1.15,2013-02-03 03:40:00,
2013-02-02 22:50:00,26.4,25.4,30.15,SW,215,3.0,4.0,96,0.00,,,0.00,Wunderground v.1.15,2013-02-03 03:50:00,
2013-02-02 23:00:00,26.6,25.6,30.15,SSW,211,3.0,5.0,96,0.00,,,0.00,Wunderground v.1.15,2013-02-03 04:00:00,
2013-02-02 23:05:00,26.7,25.7,30.14,SSW,207,4.0,5.0,96,0.00,,,0.00,Wunderground v.1.15,2013-02-03 04:05:00,
2013-02-02 23:10:00,26.9,26.2,30.14,SW,218,4.0,5.0,97,0.00,,,0.00,Wunderground v.1.15,2013-02-03 04:10:00,
2013-02-02 23:20:00,27.0,26.3,30.14,SW,218,4.0,6.0,97,0.00,,,0.00,Wunderground v.1.15,2013-02-03 04:20:00,
2013-02-02 23:30:00,27.2,26.5,30.14,SSW,210,4.0,4.0,97,0.00,,,0.00,Wunderground v.1.15,2013-02-03 04:30:00,
2013-02-02 23:40:00,27.2,26.5,30.13,SSW,213,4.0,4.0,97,0.00,,,0.00,Wunderground v.1.15,2013-02-03 04:40:00,
2013-02-02 23:45:00,27.2,26.5,30.13,SW,226,2.0,4.0,97,0.00,,,0.00,Wunderground v.1.15,2013-02-03 04:45:00,
2013-02-02 23:50:00,27.2,26.5,30.13,SW,215,2.0,2.0,97,0.00,,,0.00,Wunderground v.1.15,2013-02-03 04:50:00,